Time;durP1;ratioP1;P1;durP2;ratioP2;P2;SDS_P1;SDS_P2;PMS_P1;PMS_P2;Temp;Humidity;BMP_temperature;BMP_pressure;BME280_temperature;BME280_humidity;BME280_pressure;Samples;Min_cycle;Max_cycle;Signal;HPM_P1;HPM_P2
2023/07/08 00:00:21;;;;;;;13.20;7.68;;;;;;;-144.61;100.00;62523.38;5106994;28;20194;-71
2023/07/08 00:02:48;;;;;;;15.75;10.15;;;;;;;-144.61;100.00;62523.38;5099996;28;20203;-71
2023/07/08 00:05:17;;;;;;;16.98;8.63;;;;;;;-144.61;100.00;62523.38;5080111;28;20260;-72
2023/07/08 00:07:44;;;;;;;14.13;9.15;;;;;;;-144.61;100.00;62523.38;5101498;28;20194;-70
2023/07/08 00:10:15;;;;;;;12.25;8.05;;;;;;;-144.61;100.00;62523.38;5084559;28;20260;-71
2023/07/08 00:12:41;;;;;;;17.58;10.43;;;;;;;-144.61;100.00;62523.38;5089536;28;20247;-71
2023/07/08 00:15:11;;;;;;;9.68;5.85;;;;;;;-144.61;100.00;62523.38;5081988;28;20751;-70
2023/07/08 00:17:38;;;;;;;14.10;10.38;;;;;;;-144.61;100.00;62523.38;5098875;28;20216;-71
2023/07/08 00:20:31;;;;;;;13.15;9.27;;;;;;;-144.61;100.00;62523.38;5108132;28;20201;-71
2023/07/08 00:23:00;;;;;;;15.82;10.70;;;;;;;-144.61;100.00;62523.38;5080347;28;20199;-70
2023/07/08 00:25:27;;;;;;;13.43;7.57;;;;;;;-144.61;100.00;62523.38;5093593;28;20263;-71
2023/07/08 00:27:54;;;;;;;19.77;10.88;;;;;;;-144.61;100.00;62523.38;5082702;28;20666;-70
2023/07/08 00:30:24;;;;;;;17.02;9.82;;;;;;;-144.61;100.00;62523.38;5082010;28;20294;-71
2023/07/08 00:32:53;;;;;;;14.57;10.38;;;;;;;-144.61;100.00;62523.38;5089454;28;20266;-71
2023/07/08 00:35:27;;;;;;;13.15;8.65;;;;;;;-144.61;100.00;62523.38;5097901;28;20222;-71
2023/07/08 00:38:01;;;;;;;17.25;11.02;;;;;;;-144.61;100.00;62523.38;5091946;28;20194;-71
2023/07/08 00:40:29;;;;;;;17.45;11.07;;;;;;;-144.61;100.00;62523.38;5092720;28;20206;-71
2023/07/08 00:42:58;;;;;;;13.82;7.38;;;;;;;-144.61;100.00;62523.38;5092114;28;20195;-71
2023/07/08 00:45:41;;;;;;;17.85;11.50;;;;;;;-144.61;100.00;62523.38;5073461;28;20206;-71
2023/07/08 00:48:19;;;;;;;15.95;11.07;;;;;;;-144.61;100.00;62523.38;5102014;28;20191;-71
2023/07/08 00:50:45;;;;;;;13.82;9.27;;;;;;;-144.61;100.00;62523.38;5082671;28;20223;-71
2023/07/08 00:53:29;;;;;;;16.17;10.63;;;;;;;-144.61;100.00;62523.38;5109077;28;20225;-71
2023/07/08 00:56:00;;;;;;;9.40;6.38;;;;;;;-144.61;100.00;62523.38;5098162;28;20203;-71
2023/07/08 00:58:31;;;;;;;15.73;11.18;;;;;;;-144.61;100.00;62523.38;5099692;28;20533;-70
2023/07/08 01:01:01;;;;;;;13.45;7.65;;;;;;;-144.61;100.00;62523.38;5089136;28;20211;-71
2023/07/08 01:03:29;;;;;;;19.95;9.95;;;;;;;-144.61;100.00;62523.38;5104094;28;20237;-72
2023/07/08 01:05:59;;;;;;;14.77;10.80;;;;;;;-144.61;100.00;62523.38;5088994;28;20257;-72
2023/07/08 01:08:28;;;;;;;14.18;10.35;;;;;;;-144.61;100.00;62523.38;5100043;28;20212;-72
2023/07/08 01:11:01;;;;;;;14.27;9.63;;;;;;;-144.61;100.00;62523.38;5102589;28;20198;-73
2023/07/08 01:13:31;;;;;;;13.40;9.65;;;;;;;-144.61;100.00;62523.38;5088464;28;20234;-72
2023/07/08 01:15:59;;;;;;;12.25;8.82;;;;;;;-144.61;100.00;62523.38;5091521;28;20202;-69
2023/07/08 01:18:27;;;;;;;12.73;9.38;;;;;;;-144.61;100.00;62523.38;5104003;28;20288;-72
2023/07/08 01:20:55;;;;;;;14.80;9.32;;;;;;;-144.61;100.00;62523.38;5104981;28;20264;-72
2023/07/08 01:23:24;;;;;;;12.55;9.43;;;;;;;-144.61;100.00;62523.38;5090757;28;20195;-72
2023/07/08 01:25:51;;;;;;;14.95;8.52;;;;;;;-144.61;100.00;62523.38;5102287;28;20201;-71
2023/07/08 01:28:18;;;;;;;16.23;10.10;;;;;;;-144.61;100.00;62523.38;5110727;28;20765;-72
2023/07/08 01:30:46;;;;;;;14.50;10.02;;;;;;;-144.61;100.00;62523.38;5093201;28;20668;-72
2023/07/08 01:33:19;;;;;;;14.73;10.05;;;;;;;-144.61;100.00;62523.38;5087913;28;20200;-71
2023/07/08 01:35:49;;;;;;;13.32;9.80;;;;;;;-144.61;100.00;62523.38;5107995;28;20221;-72
2023/07/08 01:38:20;;;;;;;16.63;8.48;;;;;;;-144.61;100.00;62523.38;5095942;28;20206;-72
2023/07/08 01:40:53;;;;;;;19.63;10.63;;;;;;;-144.61;100.00;62523.38;5096446;28;20205;-72
2023/07/08 01:43:20;;;;;;;14.07;9.63;;;;;;;-144.61;100.00;62523.38;5099147;28;20237;-72
2023/07/08 01:45:48;;;;;;;8.55;6.38;;;;;;;-144.61;100.00;62523.38;5089536;28;20252;-71
2023/07/08 01:48:17;;;;;;;15.70;10.00;;;;;;;-144.61;100.00;62523.38;5078666;28;20201;-72
2023/07/08 01:50:47;;;;;;;14.98;9.98;;;;;;;-144.61;100.00;62523.38;5095412;28;20230;-72
2023/07/08 01:53:23;;;;;;;15.68;8.82;;;;;;;-144.61;100.00;62523.38;5107788;28;20194;-73
2023/07/08 01:55:51;;;;;;;16.05;8.20;;;;;;;-144.61;100.00;62523.38;5098334;28;20274;-70
2023/07/08 01:58:17;;;;;;;15.02;9.80;;;;;;;-144.61;100.00;62523.38;5104867;28;20198;-71
2023/07/08 02:00:44;;;;;;;13.48;9.60;;;;;;;-144.61;100.00;62523.38;5090770;28;20202;-71
2023/07/08 02:03:11;;;;;;;12.27;8.85;;;;;;;-144.61;100.00;62523.38;5073646;28;20237;-71
2023/07/08 02:05:38;;;;;;;12.63;8.52;;;;;;;-144.61;100.00;62523.38;5098370;28;20210;-71
2023/07/08 02:08:05;;;;;;;12.32;8.98;;;;;;;-144.61;100.00;62523.38;5098398;28;20206;-70
2023/07/08 02:10:32;;;;;;;12.50;7.80;;;;;;;-144.61;100.00;62523.38;5105619;28;20194;-70
2023/07/08 02:13:00;;;;;;;13.07;9.20;;;;;;;-144.61;100.00;62523.38;5090916;28;20199;-70
2023/07/08 02:15:27;;;;;;;14.35;9.40;;;;;;;-144.61;100.00;62523.38;5087111;28;20719;-71
2023/07/08 02:17:54;;;;;;;13.65;9.23;;;;;;;-144.61;100.00;62523.38;5102626;28;20255;-71
2023/07/08 02:20:20;;;;;;;11.40;7.80;;;;;;;-144.61;100.00;62523.38;5078013;28;20206;-71
2023/07/08 02:22:47;;;;;;;9.20;7.07;;;;;;;-144.61;100.00;62523.38;5089073;28;20205;-69
2023/07/08 02:25:14;;;;;;;6.72;5.03;;;;;;;-144.61;100.00;62523.38;5097014;28;20239;-71
2023/07/08 02:27:41;;;;;;;21.02;8.13;;;;;;;-144.61;100.00;62523.38;5107971;28;20653;-70
2023/07/08 02:30:10;;;;;;;15.30;9.13;;;;;;;-144.61;100.00;62523.38;5095520;28;20802;-71
2023/07/08 02:32:38;;;;;;;14.05;9.00;;;;;;;-144.61;100.00;62523.38;5098354;28;20202;-71
2023/07/08 02:35:06;;;;;;;11.70;8.45;;;;;;;-144.61;100.00;62523.38;5097134;28;20233;-71
2023/07/08 02:37:33;;;;;;;11.70;8.63;;;;;;;-144.61;100.00;62523.38;5101717;28;20198;-71
2023/07/08 02:39:59;;;;;;;13.52;9.57;;;;;;;-144.61;100.00;62523.38;5088328;28;20216;-71
2023/07/08 02:42:26;;;;;;;12.43;9.02;;;;;;;-144.61;100.00;62523.38;5098741;28;20286;-71
2023/07/08 02:44:53;;;;;;;12.55;9.40;;;;;;;-144.61;100.00;62523.38;5102427;28;20719;-71
2023/07/08 02:47:21;;;;;;;11.98;8.52;;;;;;;-144.61;100.00;62523.38;5086755;28;20203;-70
2023/07/08 02:49:48;;;;;;;11.57;8.38;;;;;;;-144.61;100.00;62523.38;5089654;28;20672;-71
2023/07/08 02:52:15;;;;;;;11.98;8.65;;;;;;;-144.61;100.00;62523.38;5102455;28;20751;-71
2023/07/08 02:54:42;;;;;;;12.90;7.13;;;;;;;-144.61;100.00;62523.38;5104966;28;20725;-70
2023/07/08 02:57:08;;;;;;;10.05;6.32;;;;;;;-144.61;100.00;62523.38;5090098;28;20680;-71
2023/07/08 02:59:35;;;;;;;12.45;9.43;;;;;;;-144.61;100.00;62523.38;5087250;28;20676;-71
2023/07/08 03:02:02;;;;;;;13.45;8.55;;;;;;;-144.61;100.00;62523.38;5100866;28;20202;-71
2023/07/08 03:04:30;;;;;;;14.40;9.32;;;;;;;-144.61;100.00;62523.38;5096812;28;20259;-71
2023/07/08 03:06:57;;;;;;;14.65;9.38;;;;;;;-144.61;100.00;62523.38;5088579;28;20194;-71
2023/07/08 03:09:24;;;;;;;10.88;7.93;;;;;;;-144.61;100.00;62523.38;5096283;28;20268;-71
2023/07/08 03:11:50;;;;;;;10.00;6.55;;;;;;;-144.61;100.00;62523.38;5071405;28;20245;-70
2023/07/08 03:14:17;;;;;;;11.90;8.82;;;;;;;-144.61;100.00;62523.38;5087184;28;20625;-71
2023/07/08 03:16:44;;;;;;;14.30;8.98;;;;;;;-144.61;100.00;62523.38;5093532;28;20213;-70
2023/07/08 03:19:14;;;;;;;10.55;7.15;;;;;;;-144.61;100.00;62523.38;5106812;28;20205;-71
2023/07/08 03:21:43;;;;;;;8.57;6.22;;;;;;;-144.61;100.00;62523.38;5097670;28;20202;-70
2023/07/08 03:24:11;;;;;;;12.68;7.38;;;;;;;-144.61;100.00;62523.38;5095748;28;20307;-71
2023/07/08 03:26:39;;;;;;;8.48;6.47;;;;;;;-144.61;100.00;62523.38;5099815;28;20280;-71
2023/07/08 03:29:07;;;;;;;10.88;6.82;;;;;;;-144.61;100.00;62523.38;5073672;28;20207;-70
2023/07/08 03:31:33;;;;;;;12.30;8.20;;;;;;;-144.61;100.00;62523.38;5080857;28;20677;-71
2023/07/08 03:34:00;;;;;;;9.80;6.95;;;;;;;-144.61;100.00;62523.38;5092806;28;20217;-71
2023/07/08 03:36:27;;;;;;;8.48;5.97;;;;;;;-144.61;100.00;62523.38;5103159;28;20229;-71
2023/07/08 03:38:57;;;;;;;10.13;6.78;;;;;;;-144.61;100.00;62523.38;5091387;28;20237;-71
2023/07/08 03:41:25;;;;;;;9.13;6.22;;;;;;;-144.61;100.00;62523.38;5087921;28;20198;-71
2023/07/08 03:43:52;;;;;;;8.68;5.65;;;;;;;-144.61;100.00;62523.38;5104671;28;20240;-72
2023/07/08 03:46:20;;;;;;;6.97;5.78;;;;;;;-144.61;100.00;62523.38;5095351;28;20259;-72
2023/07/08 03:48:47;;;;;;;7.95;5.82;;;;;;;-144.61;100.00;62523.38;5072017;28;20655;-71
2023/07/08 03:51:25;;;;;;;9.50;6.38;;;;;;;-144.61;100.00;62523.38;5092169;28;20550;-71
2023/07/08 03:53:52;;;;;;;7.20;5.97;;;;;;;-144.61;100.00;62523.38;5108762;28;20205;-70
2023/07/08 03:56:20;;;;;;;8.30;7.45;;;;;;;-144.61;100.00;62523.38;5096378;28;20231;-71
2023/07/08 03:58:47;;;;;;;8.27;7.30;;;;;;;-144.61;100.00;62523.38;5094392;28;20206;-71
2023/07/08 04:01:16;;;;;;;10.43;5.72;;;;;;;-144.61;100.00;62523.38;5106908;28;20772;-71
2023/07/08 04:03:44;;;;;;;8.50;6.03;;;;;;;-144.61;100.00;62523.38;5101854;28;20281;-71
2023/07/08 04:06:11;;;;;;;7.60;6.00;;;;;;;-144.61;100.00;62523.38;5095437;28;20322;-72
2023/07/08 04:08:37;;;;;;;8.15;6.55;;;;;;;-144.61;100.00;62523.38;5101816;28;20539;-73
2023/07/08 04:11:04;;;;;;;8.65;6.28;;;;;;;-144.61;100.00;62523.38;5101237;28;20293;-73
2023/07/08 04:13:32;;;;;;;8.15;5.63;;;;;;;-144.61;100.00;62523.38;5081584;28;20199;-71
2023/07/08 04:16:02;;;;;;;9.35;6.43;;;;;;;-144.61;100.00;62523.38;5087202;28;20237;-70
2023/07/08 04:18:29;;;;;;;6.72;5.28;;;;;;;-144.61;100.00;62523.38;5099675;28;20250;-71
2023/07/08 04:20:55;;;;;;;8.00;4.97;;;;;;;-144.61;100.00;62523.38;5092572;28;20243;-74
2023/07/08 04:23:22;;;;;;;9.45;6.25;;;;;;;-144.61;100.00;62523.38;5093597;28;20201;-71
2023/07/08 04:25:50;;;;;;;10.68;6.13;;;;;;;-144.61;100.00;62523.38;5106232;28;20254;-71
2023/07/08 04:28:17;;;;;;;10.93;6.72;;;;;;;-144.61;100.00;62523.38;5111536;28;20703;-71
2023/07/08 04:30:46;;;;;;;6.88;6.03;;;;;;;-144.61;100.00;62523.38;5096384;28;20228;-71
2023/07/08 04:33:14;;;;;;;9.23;6.40;;;;;;;-144.61;100.00;62523.38;5097061;28;20605;-73
2023/07/08 04:35:42;;;;;;;8.32;5.90;;;;;;;-144.61;100.00;62523.38;5105134;28;20358;-73
2023/07/08 04:38:15;;;;;;;7.82;5.55;;;;;;;-144.61;100.00;62523.38;5092762;28;20263;-73
2023/07/08 04:40:41;;;;;;;7.07;5.88;;;;;;;-144.61;100.00;62523.38;5090868;28;20198;-72
2023/07/08 04:43:10;;;;;;;7.35;6.47;;;;;;;-144.61;100.00;62523.38;5106508;28;20205;-73
2023/07/08 04:45:37;;;;;;;6.53;5.82;;;;;;;-144.61;100.00;62523.38;5083578;28;20936;-73
2023/07/08 04:48:12;;;;;;;8.15;6.38;;;;;;;-144.61;100.00;62523.38;5083674;28;20263;-73
2023/07/08 04:50:40;;;;;;;6.88;5.75;;;;;;;-144.61;100.00;62523.38;5096735;28;20235;-72
2023/07/08 04:53:07;;;;;;;8.25;6.10;;;;;;;-144.61;100.00;62523.38;5102241;28;20205;-72
2023/07/08 04:55:34;;;;;;;8.43;6.10;;;;;;;-144.61;100.00;62523.38;5086185;28;20258;-73
2023/07/08 04:58:01;;;;;;;10.43;6.63;;;;;;;-144.61;100.00;62523.38;5092459;28;20256;-73
2023/07/08 05:00:29;;;;;;;7.82;6.13;;;;;;;-144.61;100.00;62523.38;5096789;28;20298;-72
2023/07/08 05:02:56;;;;;;;8.77;6.43;;;;;;;-144.61;100.00;62523.38;5106365;28;20199;-73
2023/07/08 05:05:24;;;;;;;6.95;5.57;;;;;;;-144.61;100.00;62523.38;5103652;28;20209;-73
2023/07/08 05:07:51;;;;;;;8.00;5.97;;;;;;;-144.61;100.00;62523.38;5093558;28;20198;-72
2023/07/08 05:10:17;;;;;;;6.47;5.78;;;;;;;-144.61;100.00;62523.38;5104126;28;20213;-73
2023/07/08 05:12:45;;;;;;;6.85;5.75;;;;;;;-144.61;100.00;62523.38;5090196;28;20244;-73
2023/07/08 05:15:12;;;;;;;7.97;6.22;;;;;;;-144.61;100.00;62523.38;5103958;28;20267;-72
2023/07/08 05:17:45;;;;;;;7.55;6.30;;;;;;;-144.61;100.00;62523.38;5098682;28;20608;-73
2023/07/08 05:20:14;;;;;;;8.48;6.00;;;;;;;-144.61;100.00;62523.38;5110907;28;20208;-74
2023/07/08 05:22:43;;;;;;;7.72;5.80;;;;;;;-144.61;100.00;62523.38;5096222;28;20605;-72
2023/07/08 05:25:10;;;;;;;6.90;5.70;;;;;;;-144.61;100.00;62523.38;5089750;28;20294;-73
2023/07/08 05:27:37;;;;;;;8.32;5.80;;;;;;;-144.61;100.00;62523.38;5104223;28;20730;-71
2023/07/08 05:30:06;;;;;;;6.00;5.22;;;;;;;-144.61;100.00;62523.38;5082076;28;20206;-71
2023/07/08 05:32:33;;;;;;;7.28;6.03;;;;;;;-144.61;100.00;62523.38;5094493;28;20282;-73
2023/07/08 05:35:00;;;;;;;11.55;5.20;;;;;;;-144.61;100.00;62523.38;5101287;28;20262;-72
2023/07/08 05:37:28;;;;;;;5.90;5.28;;;;;;;-144.61;100.00;62523.38;5103167;28;20649;-72
2023/07/08 05:39:57;;;;;;;6.95;5.50;;;;;;;-144.61;100.00;62523.38;5097085;28;20230;-72
2023/07/08 05:42:24;;;;;;;6.72;5.43;;;;;;;-144.61;100.00;62523.38;5098687;28;20223;-72
2023/07/08 05:44:51;;;;;;;9.02;5.43;;;;;;;-144.61;100.00;62523.38;5088637;28;20705;-70
2023/07/08 05:47:18;;;;;;;6.55;5.55;;;;;;;-144.61;100.00;62523.38;5087890;28;20204;-71
2023/07/08 05:49:45;;;;;;;7.38;4.75;;;;;;;-144.61;100.00;62523.38;5097499;28;20209;-74
2023/07/08 05:52:12;;;;;;;6.78;5.40;;;;;;;-144.61;100.00;62523.38;5103722;28;20214;-73
2023/07/08 05:54:39;;;;;;;5.45;4.95;;;;;;;-144.61;100.00;62523.38;5105056;28;20210;-71
2023/07/08 05:57:09;;;;;;;8.55;5.72;;;;;;;-144.61;100.00;62523.38;5091587;28;20300;-73
2023/07/08 05:59:38;;;;;;;6.45;5.70;;;;;;;-144.61;100.00;62523.38;5094756;28;20668;-72
2023/07/08 06:02:07;;;;;;;7.07;5.70;;;;;;;-144.61;100.00;62523.38;5107462;28;20572;-73
2023/07/08 06:04:34;;;;;;;6.28;5.53;;;;;;;-144.61;100.00;62523.38;5098063;28;20202;-72
2023/07/08 06:07:00;;;;;;;6.00;5.03;;;;;;;-144.61;100.00;62523.38;5079689;28;20260;-72
2023/07/08 06:09:27;;;;;;;5.93;4.90;;;;;;;-144.61;100.00;62523.38;5101374;28;20194;-72
2023/07/08 06:11:54;;;;;;;6.03;4.15;;;;;;;-144.61;100.00;62523.38;5099564;28;20221;-71
2023/07/08 06:14:22;;;;;;;7.25;6.18;;;;;;;-144.61;100.00;62523.38;5083805;28;20673;-74
2023/07/08 06:16:49;;;;;;;5.28;3.80;;;;;;;-144.61;100.00;62523.38;5098411;28;20233;-72
2023/07/08 06:19:17;;;;;;;7.88;5.22;;;;;;;-144.61;100.00;62523.38;5106365;28;20194;-72
2023/07/08 06:21:44;;;;;;;9.48;5.28;;;;;;;-144.61;100.00;62523.38;5098827;28;20202;-72
2023/07/08 06:24:10;;;;;;;4.75;3.88;;;;;;;-144.61;100.00;62523.38;5094940;28;20228;-72
2023/07/08 06:26:37;;;;;;;7.65;5.82;;;;;;;-144.61;100.00;62523.38;5089151;28;20218;-72
2023/07/08 06:29:05;;;;;;;6.82;5.20;;;;;;;-144.61;100.00;62523.38;5103808;28;20680;-72
2023/07/08 06:31:33;;;;;;;8.32;6.00;;;;;;;-144.61;100.00;62523.38;5087205;28;20211;-71
2023/07/08 06:34:01;;;;;;;7.35;6.38;;;;;;;-144.61;100.00;62523.38;5089385;28;20282;-72
2023/07/08 06:36:28;;;;;;;6.50;3.70;;;;;;;-144.61;100.00;62523.38;5105466;28;20380;-72
2023/07/08 06:38:55;;;;;;;6.07;5.07;;;;;;;-144.61;100.00;62523.38;5090567;28;20203;-73
2023/07/08 06:41:22;;;;;;;4.88;2.80;;;;;;;-144.61;100.00;62523.38;5084263;28;20203;-72
2023/07/08 06:43:49;;;;;;;10.48;6.18;;;;;;;-144.61;100.00;62523.38;5102554;28;20221;-72
2023/07/08 06:46:17;;;;;;;9.10;4.78;;;;;;;-144.61;100.00;62523.38;5079329;28;20203;-74
2023/07/08 06:48:45;;;;;;;6.72;3.35;;;;;;;-144.61;100.00;62523.38;5091523;28;20190;-73
2023/07/08 06:51:12;;;;;;;8.02;5.03;;;;;;;-144.61;100.00;62523.38;5081387;28;20221;-73
2023/07/08 06:53:38;;;;;;;6.40;4.22;;;;;;;-144.61;100.00;62523.38;5106639;28;20198;-73
2023/07/08 06:56:05;;;;;;;7.72;4.68;;;;;;;-144.61;100.00;62523.38;5095216;28;20237;-72
2023/07/08 06:58:32;;;;;;;3.75;2.83;;;;;;;-144.61;100.00;62523.38;5092083;28;20546;-73
2023/07/08 07:00:59;;;;;;;4.40;2.88;;;;;;;-144.61;100.00;62523.38;5088755;28;20271;-73
2023/07/08 07:03:26;;;;;;;10.88;3.50;;;;;;;-144.61;100.00;62523.38;5100105;28;20195;-72
2023/07/08 07:05:54;;;;;;;6.90;2.97;;;;;;;-144.61;100.00;62523.38;5090214;28;20248;-73
2023/07/08 07:08:21;;;;;;;5.95;4.60;;;;;;;-144.61;100.00;62523.38;5083308;28;20206;-71
2023/07/08 07:10:47;;;;;;;9.18;5.28;;;;;;;-144.61;100.00;62523.38;5084497;28;20632;-73
2023/07/08 07:13:14;;;;;;;6.00;4.53;;;;;;;-144.61;100.00;62523.38;5079620;28;21025;-71
2023/07/08 07:15:41;;;;;;;6.03;5.03;;;;;;;-144.61;100.00;62523.38;5083740;28;20272;-72
2023/07/08 07:18:08;;;;;;;8.35;4.30;;;;;;;-144.61;100.00;62523.38;5076033;28;20210;-73
2023/07/08 07:20:37;;;;;;;7.78;4.55;;;;;;;-144.61;100.00;62523.38;5082749;28;20719;-74
2023/07/08 07:23:05;;;;;;;7.43;4.47;;;;;;;-144.61;100.00;62523.38;5078741;28;20274;-74
2023/07/08 07:25:32;;;;;;;7.90;4.90;;;;;;;-144.61;100.00;62523.38;5078194;28;20224;-74
2023/07/08 07:27:59;;;;;;;7.20;4.15;;;;;;;-144.61;100.00;62523.38;5076631;28;20191;-73
2023/07/08 07:30:26;;;;;;;7.50;5.38;;;;;;;-144.61;100.00;62523.38;5087629;28;20228;-73
2023/07/08 07:32:52;;;;;;;7.40;5.45;;;;;;;-144.61;100.00;62523.38;5087100;28;20732;-71
2023/07/08 07:35:19;;;;;;;7.38;5.75;;;;;;;-144.61;100.00;62523.38;5088140;28;20206;-73
2023/07/08 07:37:46;;;;;;;6.68;5.38;;;;;;;-144.61;100.00;62523.38;5087833;28;20286;-73
2023/07/08 07:40:15;;;;;;;6.45;5.40;;;;;;;-144.61;100.00;62523.38;5068909;28;20662;-73
2023/07/08 07:42:43;;;;;;;6.53;5.43;;;;;;;-144.61;100.00;62523.38;5080395;28;20298;-73
2023/07/08 07:45:12;;;;;;;7.30;5.70;;;;;;;-144.61;100.00;62523.38;5053195;28;1361776;-76
2023/07/08 07:47:39;;;;;;;6.60;5.63;;;;;;;-144.61;100.00;62523.38;5087633;28;20243;-74
2023/07/08 07:50:08;;;;;;;6.20;5.60;;;;;;;-144.61;100.00;62523.38;5088400;28;20266;-72
2023/07/08 07:52:34;;;;;;;7.88;5.10;;;;;;;-144.61;100.00;62523.38;5088825;28;20217;-73
2023/07/08 07:55:01;;;;;;;7.10;5.47;;;;;;;-144.61;100.00;62523.38;5087248;28;20554;-73
2023/07/08 07:57:30;;;;;;;6.93;5.75;;;;;;;-144.61;100.00;62523.38;5088198;28;20226;-73
2023/07/08 07:59:56;;;;;;;6.20;5.20;;;;;;;-144.61;100.00;62523.38;5091901;28;20202;-71
2023/07/08 08:02:23;;;;;;;7.20;4.88;;;;;;;-144.61;100.00;62523.38;5085310;28;20209;-71
2023/07/08 08:04:50;;;;;;;6.97;5.47;;;;;;;-144.61;100.00;62523.38;5087385;28;20629;-74
2023/07/08 08:07:17;;;;;;;9.20;5.95;;;;;;;-144.61;100.00;62523.38;5086037;28;20264;-72
2023/07/08 08:09:43;;;;;;;6.47;5.20;;;;;;;-144.61;100.00;62523.38;5084864;28;20256;-72
2023/07/08 08:12:12;;;;;;;6.07;3.90;;;;;;;-144.61;100.00;62523.38;5087690;28;20669;-70
2023/07/08 08:14:40;;;;;;;6.68;5.43;;;;;;;-144.61;100.00;62523.38;5084378;28;20198;-72
2023/07/08 08:17:07;;;;;;;5.53;5.00;;;;;;;-144.61;100.00;62523.38;5086453;28;20319;-73
2023/07/08 08:19:34;;;;;;;6.07;5.20;;;;;;;-144.61;100.00;62523.38;5087509;28;20205;-74
2023/07/08 08:22:00;;;;;;;7.03;5.68;;;;;;;-144.61;100.00;62523.38;5083770;28;20270;-74
2023/07/08 08:24:27;;;;;;;6.85;5.85;;;;;;;-144.61;100.00;62523.38;5071903;28;20255;-75
2023/07/08 08:26:54;;;;;;;6.60;5.68;;;;;;;-144.61;100.00;62523.38;5086304;28;20249;-74
2023/07/08 08:29:21;;;;;;;8.57;5.88;;;;;;;-144.61;100.00;62523.38;5087243;28;20206;-74
2023/07/08 08:31:50;;;;;;;6.88;5.47;;;;;;;-144.61;100.00;62523.38;5087176;28;20255;-71
2023/07/08 08:34:17;;;;;;;6.53;5.22;;;;;;;-144.61;100.00;62523.38;5086386;28;20202;-73
2023/07/08 08:36:43;;;;;;;6.18;4.80;;;;;;;-144.61;100.00;62523.38;5089817;28;20319;-73
2023/07/08 08:39:10;;;;;;;4.90;4.18;;;;;;;-144.61;100.00;62523.38;5087409;28;20198;-73
2023/07/08 08:41:41;;;;;;;4.82;3.75;;;;;;;-144.61;100.00;62523.38;5085818;28;20202;-72
2023/07/08 08:44:14;;;;;;;6.18;5.00;;;;;;;-144.61;100.00;62523.38;5090267;28;20222;-72
2023/07/08 08:46:46;;;;;;;5.97;5.30;;;;;;;-144.61;100.00;62523.38;5090496;28;20194;-73
2023/07/08 08:49:25;;;;;;;6.25;5.25;;;;;;;-144.61;100.00;62523.38;5090555;28;20198;-73
2023/07/08 08:51:54;;;;;;;6.30;5.63;;;;;;;-144.61;100.00;62523.38;5089044;28;20194;-73
2023/07/08 08:54:21;;;;;;;6.18;5.38;;;;;;;-144.61;100.00;62523.38;5088087;28;20657;-73
2023/07/08 08:57:01;;;;;;;6.13;5.43;;;;;;;-144.61;100.00;62523.38;5089574;28;20295;-74
2023/07/08 08:59:39;;;;;;;7.68;5.15;;;;;;;-144.61;100.00;62523.38;5087818;28;20610;-71
2023/07/08 09:02:26;;;;;;;5.93;5.32;;;;;;;-144.61;100.00;62523.38;5087479;28;20217;-72
2023/07/08 09:04:56;;;;;;;6.65;4.80;;;;;;;-144.61;100.00;62523.38;5088222;28;20243;-75
2023/07/08 09:07:23;;;;;;;4.53;3.85;;;;;;;-144.61;100.00;62523.38;5089017;28;20198;-71
2023/07/08 09:09:59;;;;;;;8.50;5.18;;;;;;;-144.61;100.00;62523.38;5090214;28;20668;-73
2023/07/08 09:12:29;;;;;;;6.85;4.72;;;;;;;-144.61;100.00;62523.38;5087908;28;20649;-71
2023/07/08 09:14:57;;;;;;;7.38;4.65;;;;;;;-144.61;100.00;62523.38;5089094;28;20251;-77
2023/07/08 09:17:30;;;;;;;5.50;4.90;;;;;;;-144.61;100.00;62523.38;5090530;28;20296;-73
2023/07/08 09:20:07;;;;;;;7.63;5.45;;;;;;;-144.61;100.00;62523.38;5091067;28;20211;-72
2023/07/08 09:22:45;;;;;;;7.00;5.10;;;;;;;-144.61;100.00;62523.38;5090620;28;20228;-74
2023/07/08 09:25:25;;;;;;;6.15;5.18;;;;;;;-144.61;100.00;62523.38;5089280;28;20198;-74
2023/07/08 09:27:51;;;;;;;7.45;5.78;;;;;;;-144.61;100.00;62523.38;5089826;28;20198;-74
2023/07/08 09:30:21;;;;;;;8.23;5.82;;;;;;;-144.61;100.00;62523.38;5087961;28;20240;-73
2023/07/08 09:32:48;;;;;;;6.68;5.55;;;;;;;-144.61;100.00;62523.38;5091653;28;20213;-74
2023/07/08 09:35:22;;;;;;;7.07;5.10;;;;;;;-144.61;100.00;62523.38;5088270;28;20198;-72
2023/07/08 09:37:50;;;;;;;28.65;4.97;;;;;;;-144.61;100.00;62523.38;5090702;28;20206;-74
2023/07/08 09:40:19;;;;;;;6.90;5.47;;;;;;;-144.61;100.00;62523.38;5090856;28;20198;-72
2023/07/08 09:42:50;;;;;;;6.07;5.28;;;;;;;-144.61;100.00;62523.38;5090702;28;20507;-74
2023/07/08 09:45:20;;;;;;;5.80;5.00;;;;;;;-144.61;100.00;62523.38;5089585;28;20335;-74
2023/07/08 09:47:48;;;;;;;6.03;4.65;;;;;;;-144.61;100.00;62523.38;5087998;28;20198;-72
2023/07/08 09:50:21;;;;;;;6.95;4.60;;;;;;;-144.61;100.00;62523.38;5089522;28;20221;-73
2023/07/08 09:52:48;;;;;;;6.70;5.00;;;;;;;-144.61;100.00;62523.38;5087960;28;20198;-72
2023/07/08 09:55:16;;;;;;;7.32;4.85;;;;;;;-144.61;100.00;62523.38;5088143;28;20199;-73
2023/07/08 09:57:44;;;;;;;8.02;5.30;;;;;;;-144.61;100.00;62523.38;5089980;28;20259;-73
2023/07/08 10:00:15;;;;;;;5.78;4.78;;;;;;;-144.61;100.00;62523.38;5081193;28;20215;-72
2023/07/08 10:02:46;;;;;;;6.32;4.80;;;;;;;-144.61;100.00;62523.38;5087450;28;20289;-72
2023/07/08 10:05:23;;;;;;;4.00;3.40;;;;;;;-144.61;100.00;62523.38;5085021;28;20715;-69
2023/07/08 10:07:55;;;;;;;6.75;4.53;;;;;;;-144.61;100.00;62523.38;5088014;28;20206;-72
2023/07/08 10:10:29;;;;;;;5.70;4.55;;;;;;;-144.61;100.00;62523.38;5090332;28;20746;-71
2023/07/08 10:12:59;;;;;;;5.22;4.72;;;;;;;-144.61;100.00;62523.38;5090626;28;20243;-72
2023/07/08 10:15:38;;;;;;;7.60;4.53;;;;;;;-144.61;100.00;62523.38;5089624;28;20586;-72
2023/07/08 10:18:07;;;;;;;5.88;4.38;;;;;;;-144.61;100.00;62523.38;5098981;28;20213;-72
2023/07/08 10:20:50;;;;;;;5.40;4.25;;;;;;;-144.61;100.00;62523.38;5077461;28;20244;-71
2023/07/08 10:23:26;;;;;;;5.15;4.30;;;;;;;-144.61;100.00;62523.38;5081902;28;20206;-70
2023/07/08 10:26:01;;;;;;;5.13;4.63;;;;;;;-144.61;100.00;62523.38;5089987;28;20224;-78
2023/07/08 10:28:41;;;;;;;5.45;4.60;;;;;;;-144.61;100.00;62523.38;5090000;28;20194;-77
2023/07/08 10:31:17;;;;;;;5.05;4.00;;;;;;;-144.61;100.00;62523.38;5089466;28;20650;-79
2023/07/08 10:34:16;;;;;;;6.15;4.28;;;;;;;-144.61;100.00;62523.38;5087080;28;20240;-80
2023/07/08 10:36:52;;;;;;;2.85;2.55;;;;;;;-144.61;100.00;62523.38;5087750;28;20229;-80
2023/07/08 10:39:44;;;;;;;4.80;4.03;;;;;;;-144.61;100.00;62523.38;5069129;28;20202;-79
2023/07/08 10:42:24;;;;;;;6.93;4.85;;;;;;;-144.61;100.00;62523.38;5075635;28;20198;-78
2023/07/08 10:45:00;;;;;;;4.65;3.80;;;;;;;-144.61;100.00;62523.38;5084181;28;20282;-78
2023/07/08 10:47:44;;;;;;;6.75;4.32;;;;;;;-144.61;100.00;62523.38;5080809;28;20206;-77
2023/07/08 10:50:23;;;;;;;4.68;4.15;;;;;;;-144.61;100.00;62523.38;5089001;28;20297;-77
2023/07/08 10:53:02;;;;;;;4.10;3.45;;;;;;;-144.61;100.00;62523.38;5085167;28;20198;-77
2023/07/08 10:55:43;;;;;;;5.47;3.97;;;;;;;-144.61;100.00;62523.38;5076714;28;20198;-76
2023/07/08 10:58:39;;;;;;;4.57;3.92;;;;;;;-144.61;100.00;62523.38;5086636;28;20221;-74
2023/07/08 11:01:14;;;;;;;4.60;3.88;;;;;;;-144.61;100.00;62523.38;5079827;28;20206;-77
2023/07/08 11:04:29;;;;;;;6.70;4.40;;;;;;;-144.61;100.00;62523.38;5099869;28;20740;-77
2023/07/08 11:07:00;;;;;;;6.68;4.65;;;;;;;-144.61;100.00;62523.38;5025350;28;20654;-80
2023/07/08 11:09:35;;;;;;;4.15;3.75;;;;;;;-144.61;100.00;62523.38;5071778;28;20191;-79
2023/07/08 11:12:10;;;;;;;4.70;4.20;;;;;;;-144.61;100.00;62523.38;5086406;28;20259;-78
2023/07/08 11:14:43;;;;;;;6.07;4.20;;;;;;;-144.61;100.00;62523.38;5084662;28;20229;-73
2023/07/08 11:17:18;;;;;;;5.68;4.32;;;;;;;-144.61;100.00;62523.38;5082633;28;20696;-76